シカゴ/オヘア の空港の天気 - METARとTAF

シカゴ・オヘア国際空港 ( KORD / ORD ) - アメリカ イリノイ州シカゴ
飛行場実況気象(Metar)
観測時間10/22 06:30 CDT (10/22 11:30 UTC)
風向・風速東北東 5m/s
視程4850m
天気現象雨 もや
全天の8割程度の雲 雲底高度 180m
全天を覆う雲 雲底高度 300m
気温8.3℃
湿度90%
気圧1020hPa
METARKORD 221130Z 07010KT 3SM RA BR BKN006 OVC010 08/07 A3011 RMK AO2 TSE24 P0016 T00830067
過去の天気等 Google飛行場航空写真 Wunderground天気予報

過去48時間のMETAR

飛行場予報(TAF)
発表時間: 10/22 06:20 CDT (10/22 11:20 UTC)
予報対象時間: 22日7時 CDT ~ 23日13時 CDT
風向・風速東北東 6m/s
視程8050m
天気現象しゅう雨 周辺で雷
全天の8割程度の積乱雲 雲底高度 150m
全天を覆う雲 雲底高度 370m
22日8時 CDT から
風向・風速東 5m/s
視程3220m
天気現象弱い霧雨 もや
全天を覆う雲 雲底高度 120m
22日12時 CDT から
風向・風速南東 5m/s
視程10km以上
天気現象もや
全天を覆う雲 雲底高度 210m
22日14時 CDT から
風向・風速南 5m/s
視程10km以上
全天の8割程度の雲 雲底高度 760m
22日17時 CDT から
風向・風速南 8m/s 瞬間風速 13m/s
視程10km以上
全天の4割程度の雲 雲底高度 1520m
全天の4割程度の雲 雲底高度 7620m
23日6時 CDT から
風向・風速北西 7m/s 瞬間風速 10m/s
視程10km以上
天気現象弱いしゅう雨
全天の4割程度の雲 雲底高度 180m
全天を覆う雲 雲底高度 300m
23日8時 CDT から 確率 30% で
視程4830m
天気現象弱い雷雨
全天を覆う積乱雲 雲底高度 180m
KORD 221120Z 2212/2318 07011KT 5SM SHRA VCTS BKN005CB OVC012
FM221300 09010KT 2SM -DZ BR OVC004
FM221700 13009KT 6SM BR OVC007
FM221900 17010KT P6SM BKN025
FM222200 19016G26KT P6SM SCT050 SCT250
FM231100 32013G20KT 6SM -SHRA SCT006 OVC010
PROB30 2313/2317 3SM -TSRA OVC006CB